Hilo Airport (ITO)

 

Airport Diagram
Current Weather/Forecast (VFR Conditions)
METAR PHTO 220753Z 00000KT 10SM CLR 22/19 A2997 RMK AO2 SLP148 T02220189
TAF PHTO 220520Z 2206/2306 23005KT P6SM FEW025 FM222100 09010KT P6SM FEW030 SCT050 FM230500 VRB05KT P6SM FEW025 SCT050

All Charts

Inbound Traffic (Arrivals)

No inbound traffic.


Outbound Traffic (Departures)

No outbound traffic.